Time;durP1;ratioP1;P1;durP2;ratioP2;P2;SDS_P1;SDS_P2;PMS_P1;PMS_P2;Temp;Humidity;BMP_temperature;BMP_pressure;BME280_temperature;BME280_humidity;BME280_pressure;Samples;Min_cycle;Max_cycle;Signal;HPM_P1;HPM_P2
2024/01/15 00:01:02;;;;;;;18.37;10.50;;;;;;;-2.86;100.00;99016.06;5039101;28;20220;-64
2024/01/15 00:03:27;;;;;;;21.63;10.13;;;;;;;-2.92;100.00;99018.69;5040032;28;20193;-64
2024/01/15 00:05:52;;;;;;;21.70;11.20;;;;;;;-2.82;100.00;99011.81;5032060;28;20177;-64
2024/01/15 00:08:17;;;;;;;21.70;10.80;;;;;;;-2.87;100.00;99003.53;5033498;28;20186;-67
2024/01/15 00:10:43;;;;;;;20.37;9.97;;;;;;;-2.86;100.00;99002.66;5020936;28;20225;-66
2024/01/15 00:13:08;;;;;;;20.27;11.03;;;;;;;-2.63;100.00;98994.69;5022516;28;20205;-67
2024/01/15 00:15:33;;;;;;;25.00;11.97;;;;;;;-2.76;100.00;98987.34;5032078;28;20281;-65
2024/01/15 00:17:59;;;;;;;22.57;10.60;;;;;;;-2.72;100.00;98985.63;5033434;28;20186;-65
2024/01/15 00:20:24;;;;;;;21.43;10.87;;;;;;;-2.72;100.00;98978.06;5024109;28;20233;-65
2024/01/15 00:22:49;;;;;;;21.83;10.33;;;;;;;-2.76;100.00;98978.97;5053206;28;20530;-67
2024/01/15 00:25:14;;;;;;;22.97;11.70;;;;;;;-2.76;100.00;98974.75;5033064;28;20189;-68
2024/01/15 00:27:40;;;;;;;21.07;11.50;;;;;;;-2.78;100.00;98975.66;5027492;28;20184;-67
2024/01/15 00:30:06;;;;;;;17.23;10.10;;;;;;;-2.78;100.00;98976.50;5015196;28;20291;-68
2024/01/15 00:32:31;;;;;;;19.90;10.30;;;;;;;-2.84;100.00;98974.09;5049476;28;20649;-65
2024/01/15 00:34:56;;;;;;;20.73;10.80;;;;;;;-2.78;100.00;98966.44;5032805;28;20245;-65
2024/01/15 00:37:22;;;;;;;24.77;10.43;;;;;;;-2.74;100.00;98966.38;5033159;28;20174;-65
2024/01/15 00:39:47;;;;;;;23.63;11.80;;;;;;;-2.68;100.00;98962.06;5032790;28;20189;-64
2024/01/15 00:42:12;;;;;;;21.87;10.57;;;;;;;-2.68;100.00;98962.06;5038743;28;20224;-64
2024/01/15 00:44:38;;;;;;;18.83;10.40;;;;;;;-2.61;100.00;98966.09;5031547;28;20197;-68
2024/01/15 00:47:03;;;;;;;22.37;10.67;;;;;;;-2.67;100.00;98961.19;5031471;28;20234;-67
2024/01/15 00:49:28;;;;;;;26.47;12.30;;;;;;;-2.62;100.00;98963.63;5033132;28;20210;-67
2024/01/15 00:51:54;;;;;;;20.70;10.97;;;;;;;-2.62;100.00;98956.91;5050726;28;20221;-66
2024/01/15 00:54:19;;;;;;;20.60;10.50;;;;;;;-2.60;100.00;98970.28;5034729;28;20280;-67
2024/01/15 00:56:46;;;;;;;29.77;11.80;;;;;;;-2.46;100.00;98961.63;5028562;28;20545;-67
2024/01/15 00:59:14;;;;;;;21.40;10.33;;;;;;;-2.50;100.00;98965.09;5027864;28;20239;-67
2024/01/15 01:01:42;;;;;;;26.23;12.07;;;;;;;-2.53;100.00;98950.03;5036799;28;20679;-67
2024/01/15 01:04:09;;;;;;;24.07;11.40;;;;;;;-2.57;100.00;98945.91;5037976;28;20565;-65
2024/01/15 01:06:34;;;;;;;25.83;11.27;;;;;;;-2.65;100.00;98953.63;5032198;28;20189;-66
2024/01/15 01:08:59;;;;;;;21.57;11.70;;;;;;;-2.72;100.00;98949.56;5030603;28;20281;-66
2024/01/15 01:11:25;;;;;;;23.17;10.50;;;;;;;-2.74;100.00;98944.56;5043898;28;20302;-66
2024/01/15 01:13:50;;;;;;;25.63;11.60;;;;;;;-2.77;100.00;98942.94;5041867;28;20537;-62
2024/01/15 01:16:15;;;;;;;22.30;10.77;;;;;;;-2.72;100.00;98947.03;5032093;28;20217;-62
2024/01/15 01:18:40;;;;;;;22.23;9.67;;;;;;;-2.75;100.00;98937.84;5031387;28;20197;-62
2024/01/15 01:21:06;;;;;;;18.57;10.07;;;;;;;-2.77;100.00;98935.38;5038449;28;20212;-62
2024/01/15 01:23:31;;;;;;;20.07;10.60;;;;;;;-2.72;100.00;98942.00;5046140;28;20188;-62
2024/01/15 01:25:56;;;;;;;19.43;9.87;;;;;;;-2.61;100.00;98933.38;5031708;28;20493;-62
2024/01/15 01:28:22;;;;;;;20.93;10.60;;;;;;;-2.72;100.00;98931.94;5031946;28;20579;-62
2024/01/15 01:30:47;;;;;;;22.20;10.97;;;;;;;-2.77;100.00;98942.94;5038457;28;20982;-62
2024/01/15 01:33:12;;;;;;;22.73;11.47;;;;;;;-2.68;100.00;98954.50;5051283;28;20297;-62
2024/01/15 01:35:38;;;;;;;22.10;10.37;;;;;;;-2.59;100.00;98948.47;5031661;28;20185;-62
2024/01/15 01:38:03;;;;;;;24.50;11.67;;;;;;;-2.58;100.00;98954.31;5031663;28;20259;-63
2024/01/15 01:40:28;;;;;;;24.63;11.53;;;;;;;-2.70;100.00;98950.38;5028578;28;20236;-63
2024/01/15 01:42:54;;;;;;;22.50;11.53;;;;;;;-2.57;100.00;98944.22;5056118;28;20559;-63
2024/01/15 01:45:19;;;;;;;22.03;10.83;;;;;;;-2.69;100.00;98937.75;5031710;28;20236;-62
2024/01/15 01:47:44;;;;;;;21.00;10.07;;;;;;;-2.63;100.00;98941.81;5031822;28;20265;-63
2024/01/15 01:50:10;;;;;;;23.10;11.10;;;;;;;-2.62;100.00;98929.22;5019488;28;20186;-62
2024/01/15 01:52:35;;;;;;;22.47;10.77;;;;;;;-2.57;100.00;98916.50;5035765;28;20202;-63
2024/01/15 01:55:02;;;;;;;21.97;10.30;;;;;;;-2.56;100.00;98917.38;5022370;28;20963;-62
2024/01/15 01:57:29;;;;;;;21.03;10.23;;;;;;;-2.58;100.00;98926.63;5030098;28;20671;-62
2024/01/15 01:59:55;;;;;;;19.90;10.50;;;;;;;-2.62;100.00;98925.84;5030178;28;20186;-62
2024/01/15 02:02:21;;;;;;;17.83;9.30;;;;;;;-2.72;100.00;98926.91;5053605;28;20737;-62
2024/01/15 02:04:48;;;;;;;20.47;10.10;;;;;;;-2.77;100.00;98915.25;5028771;28;20198;-62
2024/01/15 02:07:13;;;;;;;21.13;10.30;;;;;;;-2.65;100.00;98920.91;5055113;28;20559;-62
2024/01/15 02:09:38;;;;;;;17.43;9.83;;;;;;;-2.65;100.00;98919.19;5031145;28;20660;-62
2024/01/15 02:12:04;;;;;;;20.53;10.00;;;;;;;-2.63;100.00;98916.63;5057779;28;20255;-62
2024/01/15 02:14:29;;;;;;;24.17;10.73;;;;;;;-2.61;100.00;98913.22;5032670;28;20194;-61
2024/01/15 02:16:55;;;;;;;22.43;10.57;;;;;;;-2.61;100.00;98913.22;5036266;28;20193;-61
2024/01/15 02:19:20;;;;;;;21.67;10.83;;;;;;;-2.60;100.00;98916.59;5031470;28;20182;-62
2024/01/15 02:21:45;;;;;;;20.90;10.43;;;;;;;-2.55;100.00;98902.22;5047985;28;20231;-62
2024/01/15 02:24:11;;;;;;;22.03;10.13;;;;;;;-2.57;100.00;98911.47;5035098;28;20182;-62
2024/01/15 02:26:38;;;;;;;20.53;11.23;;;;;;;-2.55;100.00;98891.31;5031140;28;20189;-62
2024/01/15 02:29:04;;;;;;;19.50;10.87;;;;;;;-2.54;100.00;98893.81;5029360;28;20265;-62
2024/01/15 02:31:29;;;;;;;15.67;9.73;;;;;;;-2.44;100.00;98907.03;5034380;28;20228;-61
2024/01/15 02:33:55;;;;;;;18.40;10.33;;;;;;;-2.41;100.00;98908.66;5039305;28;20526;-62
2024/01/15 02:36:20;;;;;;;25.13;9.90;;;;;;;-2.34;100.00;98908.50;5030906;28;20182;-62
2024/01/15 02:38:45;;;;;;;20.70;10.37;;;;;;;-2.37;100.00;98917.81;5030957;28;20169;-62
2024/01/15 02:41:10;;;;;;;18.80;9.93;;;;;;;-2.53;100.00;98918.13;5039091;28;20609;-63
2024/01/15 02:43:36;;;;;;;20.37;10.10;;;;;;;-2.47;100.00;98918.00;5043862;28;20183;-62
2024/01/15 02:46:01;;;;;;;22.70;10.20;;;;;;;-2.46;100.00;98907.03;5030995;28;20229;-62
2024/01/15 02:48:26;;;;;;;17.80;9.63;;;;;;;-2.31;100.00;98916.00;5031490;28;20174;-62
2024/01/15 02:50:52;;;;;;;20.07;10.67;;;;;;;-2.31;100.00;98900.03;5025307;28;20228;-61
2024/01/15 02:53:17;;;;;;;16.33;9.17;;;;;;;-2.31;100.00;98903.41;5048591;28;20202;-62
2024/01/15 02:55:42;;;;;;;16.53;9.27;;;;;;;-2.34;100.00;98908.50;5031043;28;20182;-62
2024/01/15 02:58:07;;;;;;;20.23;9.87;;;;;;;-2.38;100.00;98909.44;5030599;28;20197;-62
2024/01/15 03:00:33;;;;;;;18.97;9.13;;;;;;;-2.31;100.00;98912.63;5029018;28;20357;-62
2024/01/15 03:02:58;;;;;;;17.40;9.57;;;;;;;-2.36;100.00;98906.88;5053831;28;20216;-63
2024/01/15 03:05:23;;;;;;;18.70;9.70;;;;;;;-2.38;100.00;98899.34;5033026;28;20198;-63
2024/01/15 03:07:49;;;;;;;18.43;9.23;;;;;;;-2.45;100.00;98900.34;5034475;28;20186;-63
2024/01/15 03:10:14;;;;;;;20.63;9.33;;;;;;;-2.51;100.00;98901.28;5059651;28;20676;-62
2024/01/15 03:12:39;;;;;;;24.30;10.33;;;;;;;-2.51;100.00;98901.28;5047650;28;20186;-62
2024/01/15 03:15:05;;;;;;;17.53;8.37;;;;;;;-2.52;100.00;98898.81;5032717;28;20271;-62
2024/01/15 03:17:30;;;;;;;23.53;10.43;;;;;;;-2.66;100.00;98896.56;5034298;28;20181;-62
2024/01/15 03:19:55;;;;;;;18.13;9.60;;;;;;;-2.68;100.00;98904.16;5032945;28;20178;-62
2024/01/15 03:22:20;;;;;;;18.00;8.87;;;;;;;-2.66;100.00;98909.16;5055293;28;20225;-62
2024/01/15 03:24:46;;;;;;;17.37;9.37;;;;;;;-2.68;100.00;98906.69;5034230;28;20185;-61
2024/01/15 03:27:11;;;;;;;19.07;9.07;;;;;;;-2.65;100.00;98905.78;5034220;28;20303;-62
2024/01/15 03:29:36;;;;;;;21.47;10.27;;;;;;;-2.67;100.00;98904.97;5034195;28;20567;-62
2024/01/15 03:32:02;;;;;;;20.10;8.93;;;;;;;-2.52;100.00;98897.09;5041609;28;20306;-62
2024/01/15 03:34:27;;;;;;;20.40;9.73;;;;;;;-2.60;100.00;98904.81;5032388;28;20197;-62
2024/01/15 03:36:53;;;;;;;22.27;10.37;;;;;;;-2.58;100.00;98906.47;5020176;28;20202;-62
2024/01/15 03:39:18;;;;;;;18.77;9.53;;;;;;;-2.46;100.00;98906.22;5033805;28;20186;-62
2024/01/15 03:41:43;;;;;;;21.67;9.87;;;;;;;-2.48;100.00;98897.88;5050563;28;20236;-64
2024/01/15 03:44:08;;;;;;;20.57;9.30;;;;;;;-2.46;100.00;98898.69;5038576;28;20204;-63
2024/01/15 03:46:34;;;;;;;16.47;8.90;;;;;;;-2.51;100.00;98883.66;5033713;28;20709;-62
2024/01/15 03:48:59;;;;;;;20.80;9.63;;;;;;;-2.49;100.00;98886.97;5034474;28;20185;-61
2024/01/15 03:51:24;;;;;;;20.00;10.40;;;;;;;-2.40;100.00;98891.00;5031774;28;20233;-63
2024/01/15 03:53:49;;;;;;;18.97;10.57;;;;;;;-2.33;100.00;98879.94;5043967;28;20263;-62
2024/01/15 03:56:15;;;;;;;19.93;10.30;;;;;;;-2.34;100.00;98878.28;5033804;28;20193;-62
2024/01/15 03:58:40;;;;;;;20.47;10.03;;;;;;;-2.33;100.00;98874.91;5033694;28;20548;-62
2024/01/15 04:01:12;;;;;;;19.07;8.70;;;;;;;-2.35;100.00;98873.28;5039689;28;20232;-62
2024/01/15 04:03:37;;;;;;;19.13;9.77;;;;;;;-2.24;100.00;98873.88;5038493;28;20320;-63
2024/01/15 04:06:03;;;;;;;18.80;9.47;;;;;;;-2.23;100.00;98867.13;5020456;28;20264;-61
2024/01/15 04:08:29;;;;;;;17.27;8.27;;;;;;;-2.29;100.00;98866.41;5065486;28;20207;-62
2024/01/15 04:10:54;;;;;;;19.93;9.13;;;;;;;-2.32;100.00;98871.53;5037070;28;20228;-62
2024/01/15 04:13:20;;;;;;;18.87;9.40;;;;;;;-2.36;100.00;98864.88;5050423;28;20197;-63
2024/01/15 04:15:45;;;;;;;18.97;9.63;;;;;;;-2.35;100.00;98870.75;5032340;28;20629;-62
2024/01/15 04:18:10;;;;;;;17.83;9.53;;;;;;;-2.29;100.00;98870.63;5031691;28;20170;-63
2024/01/15 04:20:36;;;;;;;19.07;9.37;;;;;;;-2.34;100.00;98863.16;5015254;28;20228;-62
2024/01/15 04:23:01;;;;;;;16.87;8.83;;;;;;;-2.37;100.00;98865.75;5038658;28;20186;-62
2024/01/15 04:25:26;;;;;;;20.27;10.50;;;;;;;-2.35;100.00;98855.66;5027156;28;20174;-62
2024/01/15 04:27:51;;;;;;;18.70;9.03;;;;;;;-2.28;100.00;98872.28;5033192;28;20188;-62
2024/01/15 04:30:17;;;;;;;15.67;8.97;;;;;;;-2.27;100.00;98863.84;5005152;28;20544;-61
2024/01/15 04:32:42;;;;;;;21.13;9.43;;;;;;;-2.19;100.00;98866.22;5060538;28;20185;-61
2024/01/15 04:35:07;;;;;;;16.17;9.13;;;;;;;-2.20;100.00;98860.34;5032832;28;20260;-62
2024/01/15 04:37:33;;;;;;;19.10;9.80;;;;;;;-2.24;100.00;98862.97;5032926;28;20216;-61
2024/01/15 04:39:58;;;;;;;20.17;9.63;;;;;;;-2.23;100.00;98855.38;5033095;28;20185;-61
2024/01/15 04:42:23;;;;;;;20.63;10.30;;;;;;;-2.29;100.00;98845.44;5054114;28;20595;-61
2024/01/15 04:44:49;;;;;;;19.83;10.10;;;;;;;-2.29;100.00;98850.47;5032158;28;20288;-63
2024/01/15 04:47:14;;;;;;;17.37;9.73;;;;;;;-2.28;100.00;98849.63;5032715;28;20509;-63
2024/01/15 04:49:39;;;;;;;16.90;9.50;;;;;;;-2.21;100.00;98851.09;5033316;28;20183;-62
2024/01/15 04:52:05;;;;;;;19.57;9.73;;;;;;;-2.22;100.00;98854.50;5046180;28;20224;-62
2024/01/15 04:54:30;;;;;;;17.80;9.40;;;;;;;-2.21;100.00;98843.56;5032481;28;20202;-62
2024/01/15 04:56:55;;;;;;;15.17;8.10;;;;;;;-2.16;100.00;98835.91;5032476;28;20322;-61
2024/01/15 04:59:20;;;;;;;23.93;8.93;;;;;;;-2.16;100.00;98845.97;5032425;28;20618;-62
2024/01/15 05:01:46;;;;;;;18.10;9.17;;;;;;;-2.08;100.00;98840.75;5049369;28;20256;-61
2024/01/15 05:04:11;;;;;;;20.37;9.53;;;;;;;-2.18;100.00;98843.50;5036621;28;20182;-62
2024/01/15 05:06:36;;;;;;;20.90;10.27;;;;;;;-2.22;100.00;98841.06;5032296;28;20194;-62
2024/01/15 05:09:03;;;;;;;18.43;9.20;;;;;;;-2.20;100.00;98839.34;5032197;28;20193;-62
2024/01/15 05:11:28;;;;;;;15.90;9.30;;;;;;;-2.09;100.00;98842.47;5039718;28;20224;-62
2024/01/15 05:13:53;;;;;;;17.30;9.77;;;;;;;-2.05;100.00;98846.56;5035929;28;20554;-62
2024/01/15 05:16:18;;;;;;;17.70;9.07;;;;;;;-2.09;100.00;98846.69;5032325;28;20185;-62
2024/01/15 05:18:44;;;;;;;20.03;10.30;;;;;;;-2.05;100.00;98849.06;5031923;28;20185;-63
2024/01/15 05:21:09;;;;;;;19.00;9.77;;;;;;;-2.22;100.00;98852.00;5039569;28;20236;-63
2024/01/15 05:23:34;;;;;;;20.17;9.73;;;;;;;-2.25;100.00;98851.22;5037697;28;20178;-62
2024/01/15 05:25:59;;;;;;;22.63;10.60;;;;;;;-2.37;100.00;98847.28;5032533;28;20612;-63
2024/01/15 05:28:25;;;;;;;19.63;9.57;;;;;;;-2.26;100.00;98840.31;5031808;28;20185;-63
2024/01/15 05:30:51;;;;;;;21.90;11.13;;;;;;;-2.24;100.00;98842.81;5030009;28;20235;-62
2024/01/15 05:33:16;;;;;;;21.13;11.20;;;;;;;-2.28;100.00;98839.53;5039677;28;20691;-62
2024/01/15 05:35:42;;;;;;;20.97;10.17;;;;;;;-2.32;100.00;98832.88;5030383;28;20606;-62
2024/01/15 05:38:07;;;;;;;20.50;9.90;;;;;;;-2.26;100.00;98832.75;5031871;28;20640;-62
2024/01/15 05:40:32;;;;;;;16.40;8.90;;;;;;;-2.30;100.00;98836.22;5029898;28;20224;-61
2024/01/15 05:42:58;;;;;;;21.43;9.43;;;;;;;-2.28;100.00;98832.78;5054746;28;20182;-62
2024/01/15 05:45:23;;;;;;;18.83;10.43;;;;;;;-2.22;100.00;98836.03;5031615;28;20240;-62
2024/01/15 05:47:49;;;;;;;19.77;10.43;;;;;;;-2.18;100.00;98832.59;5030380;28;20181;-62
2024/01/15 05:50:14;;;;;;;17.03;9.77;;;;;;;-2.19;100.00;98830.94;5019516;28;20527;-63
2024/01/15 05:52:40;;;;;;;16.50;9.20;;;;;;;-2.21;100.00;98827.63;5056327;28;20170;-62
2024/01/15 05:55:05;;;;;;;19.27;9.73;;;;;;;-2.24;100.00;98827.72;5031451;28;20197;-62
2024/01/15 05:57:30;;;;;;;18.73;9.70;;;;;;;-2.23;100.00;98832.69;5031498;28;20261;-62
2024/01/15 05:59:56;;;;;;;18.37;10.03;;;;;;;-2.23;100.00;98827.66;5031700;28;20185;-61
2024/01/15 06:02:21;;;;;;;17.13;10.33;;;;;;;-2.18;100.00;98825.03;5052218;28;20239;-62
2024/01/15 06:04:46;;;;;;;19.23;10.07;;;;;;;-2.23;100.00;98821.78;5029783;28;20243;-62
2024/01/15 06:07:11;;;;;;;16.57;9.23;;;;;;;-2.25;100.00;98811.75;5030181;28;20184;-62
2024/01/15 06:09:38;;;;;;;17.73;10.03;;;;;;;-2.19;100.00;98814.13;5031610;28;20257;-62
2024/01/15 06:12:04;;;;;;;20.27;9.57;;;;;;;-2.16;100.00;98803.16;5052522;28;20258;-62
2024/01/15 06:14:29;;;;;;;17.00;8.97;;;;;;;-2.14;100.00;98804.75;5063190;28;20643;-62
2024/01/15 06:16:54;;;;;;;17.60;9.63;;;;;;;-2.08;100.00;98810.50;5031250;28;20178;-62
2024/01/15 06:19:19;;;;;;;17.20;9.60;;;;;;;-2.09;100.00;98817.25;5031255;28;20182;-63
2024/01/15 06:21:45;;;;;;;20.63;10.50;;;;;;;-2.12;100.00;98818.16;5047957;28;20217;-62
2024/01/15 06:24:10;;;;;;;17.90;10.03;;;;;;;-2.14;100.00;98817.34;5036073;28;20178;-62
2024/01/15 06:26:36;;;;;;;19.03;9.27;;;;;;;-2.20;100.00;98814.97;5031068;28;20536;-62
2024/01/15 06:29:02;;;;;;;15.80;9.23;;;;;;;-2.12;100.00;98819.88;5031191;28;20236;-61
2024/01/15 06:31:28;;;;;;;20.13;10.47;;;;;;;-2.13;100.00;98820.72;5033832;28;20224;-61
2024/01/15 06:33:53;;;;;;;19.33;10.00;;;;;;;-2.11;100.00;98822.34;5034320;28;20580;-61
2024/01/15 06:36:18;;;;;;;22.10;10.00;;;;;;;-2.25;100.00;98826.03;5031100;28;20524;-61
2024/01/15 06:38:44;;;;;;;22.83;10.63;;;;;;;-2.21;100.00;98833.47;5031238;28;20186;-63
2024/01/15 06:41:09;;;;;;;22.43;11.17;;;;;;;-2.29;100.00;98818.53;5042205;28;20220;-62
2024/01/15 06:43:35;;;;;;;19.13;11.57;;;;;;;-2.23;100.00;98821.78;5049177;28;20240;-62
2024/01/15 06:46:00;;;;;;;20.70;10.20;;;;;;;-2.18;100.00;98820.00;5033273;28;20229;-61
2024/01/15 06:48:25;;;;;;;20.83;12.20;;;;;;;-2.24;100.00;98827.72;5035703;28;20264;-61
2024/01/15 06:50:51;;;;;;;19.73;10.87;;;;;;;-2.21;100.00;98812.50;5027690;28;20338;-61
2024/01/15 06:53:16;;;;;;;20.47;10.60;;;;;;;-2.20;100.00;98825.06;5053796;28;20202;-62
2024/01/15 06:55:41;;;;;;;22.67;10.67;;;;;;;-2.16;100.00;98811.53;5034725;28;20269;-62
2024/01/15 06:58:07;;;;;;;18.13;10.77;;;;;;;-2.15;100.00;98814.88;5034664;28;20251;-61
2024/01/15 07:00:33;;;;;;;22.37;11.00;;;;;;;-2.12;100.00;98815.63;5032605;28;20240;-61
2024/01/15 07:02:58;;;;;;;21.67;11.03;;;;;;;-2.13;100.00;98806.41;5045157;28;20166;-62
2024/01/15 07:05:24;;;;;;;19.87;10.87;;;;;;;-2.08;100.00;98796.25;5033337;28;20193;-61
2024/01/15 07:07:49;;;;;;;21.10;11.97;;;;;;;-2.01;100.00;98801.94;5034915;28;20174;-63
2024/01/15 07:10:14;;;;;;;21.07;11.27;;;;;;;-1.97;100.00;98811.13;5027661;28;20204;-62
2024/01/15 07:12:44;;;;;;;25.60;11.07;;;;;;;-1.94;100.00;98813.53;5047417;28;20193;-61
2024/01/15 07:15:09;;;;;;;22.43;10.50;;;;;;;-1.98;100.00;98809.44;5033168;28;20213;-62
2024/01/15 07:17:35;;;;;;;23.57;11.47;;;;;;;-1.96;100.00;98807.69;5034686;28;20204;-64
2024/01/15 07:20:01;;;;;;;21.47;11.40;;;;;;;-1.93;100.00;98809.31;5032429;28;20186;-62
2024/01/15 07:22:26;;;;;;;22.77;11.70;;;;;;;-1.83;100.00;98808.25;5054214;28;20226;-62
2024/01/15 07:24:52;;;;;;;22.53;11.23;;;;;;;-1.78;100.00;98808.97;5034206;28;20182;-61
2024/01/15 07:27:17;;;;;;;21.73;11.53;;;;;;;-1.81;100.00;98807.34;5066755;28;20185;-61
2024/01/15 07:29:42;;;;;;;17.80;10.80;;;;;;;-1.82;100.00;98809.91;5033880;28;20233;-61
2024/01/15 07:32:08;;;;;;;23.77;11.97;;;;;;;-1.88;100.00;98818.44;5041179;28;20285;-62
2024/01/15 07:34:34;;;;;;;21.73;11.37;;;;;;;-1.68;100.00;98812.91;5033312;28;20221;-61
2024/01/15 07:36:59;;;;;;;23.23;11.47;;;;;;;-1.80;100.00;98818.25;5033793;28;20268;-63
2024/01/15 07:39:25;;;;;;;23.43;11.53;;;;;;;-1.83;100.00;98818.34;5034065;28;20189;-63
2024/01/15 07:41:51;;;;;;;20.07;11.10;;;;;;;-1.75;100.00;98810.56;5039979;28;20227;-62
2024/01/15 07:44:16;;;;;;;18.93;10.73;;;;;;;-1.70;100.00;98816.31;5034214;28;20178;-62
2024/01/15 07:46:48;;;;;;;20.40;11.63;;;;;;;-1.80;100.00;98806.47;5032099;28;20222;-64
2024/01/15 07:49:13;;;;;;;21.67;11.53;;;;;;;-1.75;100.00;98823.19;5036686;28;20220;-62
2024/01/15 07:51:43;;;;;;;18.20;10.43;;;;;;;-1.72;100.00;98815.56;5037701;28;20325;-62
2024/01/15 07:54:09;;;;;;;20.80;11.43;;;;;;;-1.62;100.00;98817.78;5038972;28;20209;-61
2024/01/15 07:56:34;;;;;;;22.63;11.57;;;;;;;-1.58;100.00;98820.25;5033974;28;20190;-63
2024/01/15 07:58:59;;;;;;;22.30;11.53;;;;;;;-1.56;100.00;98813.44;5033579;28;20213;-61
2024/01/15 08:01:25;;;;;;;19.63;11.37;;;;;;;-1.48;100.00;98816.59;5044822;28;20234;-64
2024/01/15 08:03:50;;;;;;;22.77;11.30;;;;;;;-1.50;100.00;98819.19;5042827;28;20204;-62
2024/01/15 08:06:16;;;;;;;21.60;10.93;;;;;;;-1.43;100.00;98819.03;5033704;28;20182;-62
2024/01/15 08:08:41;;;;;;;20.60;11.83;;;;;;;-1.44;100.00;98823.22;5033081;28;20269;-69
2024/01/15 08:11:07;;;;;;;18.17;9.67;;;;;;;-1.40;100.00;98809.69;5040459;28;20693;-62
2024/01/15 08:13:32;;;;;;;23.20;10.70;;;;;;;-1.31;100.00;98814.47;5047391;28;20198;-61
2024/01/15 08:15:57;;;;;;;22.30;11.43;;;;;;;-1.16;100.00;98812.41;5033467;28;20182;-61
2024/01/15 08:18:22;;;;;;;20.03;10.43;;;;;;;-1.10;100.00;98809.72;5032997;28;20579;-61
2024/01/15 08:20:48;;;;;;;24.40;11.40;;;;;;;-1.03;100.00;98806.16;5034677;28;20232;-61
2024/01/15 08:23:13;;;;;;;20.27;10.47;;;;;;;-0.87;100.00;98801.50;5052640;28;20214;-61
2024/01/15 08:25:38;;;;;;;22.70;11.50;;;;;;;-0.92;100.00;98788.16;5031762;28;20308;-61
2024/01/15 08:28:04;;;;;;;18.77;10.07;;;;;;;-0.98;100.00;98794.22;5033068;28;20190;-62
2024/01/15 08:30:29;;;;;;;19.80;10.93;;;;;;;-0.98;100.00;98790.88;5002731;28;20685;-63
2024/01/15 08:32:55;;;;;;;20.67;10.63;;;;;;;-0.89;100.00;98792.31;5033128;28;20524;-62
2024/01/15 08:35:22;;;;;;;18.93;10.07;;;;;;;-0.95;100.00;98790.78;5031618;28;20190;-62
2024/01/15 08:37:51;;;;;;;19.33;10.07;;;;;;;-0.91;100.00;98781.44;5047347;28;20193;-61
2024/01/15 08:40:17;;;;;;;20.87;10.57;;;;;;;-0.86;100.00;98785.47;5025290;28;20174;-61
2024/01/15 08:42:42;;;;;;;19.30;9.80;;;;;;;-0.88;100.00;98783.84;5059836;28;20197;-62
2024/01/15 08:45:09;;;;;;;20.03;10.43;;;;;;;-0.79;100.00;98780.25;5032367;28;20211;-61
2024/01/15 08:47:35;;;;;;;14.93;9.33;;;;;;;-0.80;100.00;98787.00;5031251;28;20642;-62
2024/01/15 08:50:00;;;;;;;15.73;9.47;;;;;;;-0.83;100.00;98797.19;5028685;28;20277;-61
2024/01/15 08:52:26;;;;;;;16.87;9.87;;;;;;;-0.68;100.00;98794.22;5048898;28;20216;-61
2024/01/15 08:54:51;;;;;;;15.47;9.03;;;;;;;-0.69;100.00;98794.28;5032365;28;20666;-61
2024/01/15 08:57:16;;;;;;;15.40;9.27;;;;;;;-0.76;100.00;98806.22;5064345;28;20217;-61
2024/01/15 08:59:42;;;;;;;16.50;10.23;;;;;;;-0.84;100.00;98805.63;5031241;28;20188;-61
2024/01/15 09:02:07;;;;;;;17.83;10.13;;;;;;;-0.86;100.00;98813.25;5053091;28;20224;-61
2024/01/15 09:04:33;;;;;;;20.07;9.97;;;;;;;-0.86;100.00;98807.38;5032659;28;20269;-61
2024/01/15 09:06:58;;;;;;;15.93;9.60;;;;;;;-0.80;100.00;98801.34;5032024;28;20303;-61
2024/01/15 09:09:24;;;;;;;13.40;8.80;;;;;;;-0.82;100.00;98801.34;5032439;28;20651;-61
2024/01/15 09:11:49;;;;;;;16.83;9.53;;;;;;;-0.86;100.00;98809.91;5049952;28;20262;-63
2024/01/15 09:14:15;;;;;;;14.77;8.27;;;;;;;-0.85;100.00;98819.13;5031551;28;20298;-62
2024/01/15 09:16:40;;;;;;;18.57;10.37;;;;;;;-0.93;100.00;98819.34;5031609;28;20190;-63
2024/01/15 09:19:05;;;;;;;17.47;9.23;;;;;;;-0.91;100.00;98821.81;5032217;28;20178;-62
2024/01/15 09:21:31;;;;;;;15.53;9.27;;;;;;;-0.96;100.00;98821.13;5044614;28;20275;-62
2024/01/15 09:23:56;;;;;;;19.40;10.53;;;;;;;-0.80;100.00;98832.44;5040213;28;20174;-61
2024/01/15 09:26:21;;;;;;;14.77;9.70;;;;;;;-0.66;100.00;98834.56;5031915;28;20201;-61
2024/01/15 09:28:46;;;;;;;20.27;12.10;;;;;;;-0.58;100.00;98821.72;5031383;28;20194;-63
2024/01/15 09:31:12;;;;;;;14.43;10.27;;;;;;;-0.53;100.00;98819.91;5032607;28;20700;-62
2024/01/15 09:33:37;;;;;;;17.33;10.57;;;;;;;-0.45;100.00;98812.91;5044707;28;20198;-62
2024/01/15 09:36:03;;;;;;;19.13;10.57;;;;;;;-0.44;100.00;98804.47;5031795;28;20219;-61
2024/01/15 09:38:29;;;;;;;16.97;9.63;;;;;;;-0.42;100.00;98804.41;5030269;28;20208;-62
2024/01/15 09:40:55;;;;;;;17.47;10.27;;;;;;;-0.43;100.00;98793.47;5054386;28;20229;-62
2024/01/15 09:43:21;;;;;;;17.17;8.90;;;;;;;-0.40;100.00;98797.59;5032650;28;20193;-64
2024/01/15 09:45:47;;;;;;;16.83;10.17;;;;;;;-0.45;100.00;98800.28;5029461;28;20219;-61
2024/01/15 09:48:12;;;;;;;18.67;10.40;;;;;;;-0.34;100.00;98808.34;5031560;28;20228;-61
2024/01/15 09:50:38;;;;;;;16.20;9.83;;;;;;;-0.30;100.00;98811.59;5031929;28;20225;-64
2024/01/15 09:53:05;;;;;;;15.23;10.13;;;;;;;-0.22;100.00;98806.34;5052715;28;20277;-62
2024/01/15 09:55:32;;;;;;;18.50;9.90;;;;;;;0.03;100.00;98818.22;5029085;28;20186;-64
2024/01/15 09:58:00;;;;;;;16.20;9.73;;;;;;;0.04;100.00;98810.56;5029927;28;20661;-62
2024/01/15 10:00:26;;;;;;;15.20;9.97;;;;;;;0.19;100.00;98810.91;5025301;28;20229;-61
2024/01/15 10:02:52;;;;;;;20.37;12.40;;;;;;;0.16;100.00;98814.38;5042077;28;20185;-61
2024/01/15 10:05:17;;;;;;;20.07;10.50;;;;;;;0.17;100.00;98810.97;5031470;28;20200;-63
2024/01/15 10:07:45;;;;;;;16.87;10.40;;;;;;;0.40;100.00;98806.88;5063292;28;20535;-62
2024/01/15 10:10:11;;;;;;;15.83;10.10;;;;;;;0.41;100.00;98794.19;5023190;28;20619;-61
2024/01/15 10:12:37;;;;;;;13.57;9.33;;;;;;;0.36;100.00;98795.19;5044217;28;20272;-63
2024/01/15 10:15:04;;;;;;;15.63;9.93;;;;;;;0.36;100.00;98788.44;5028563;28;20246;-62
2024/01/15 10:17:30;;;;;;;16.67;9.97;;;;;;;0.34;100.00;98791.91;5029654;28;20639;-64
2024/01/15 10:19:56;;;;;;;17.30;10.23;;;;;;;0.50;100.00;98782.06;5031599;28;20241;-62
2024/01/15 10:22:21;;;;;;;15.60;9.73;;;;;;;0.57;100.00;98789.41;5051963;28;20229;-62
2024/01/15 10:24:46;;;;;;;14.40;9.63;;;;;;;0.51;100.00;98796.38;5030716;28;20198;-63
2024/01/15 10:27:12;;;;;;;15.03;9.87;;;;;;;0.56;100.00;98802.94;5030650;28;20188;-62
2024/01/15 10:29:37;;;;;;;13.83;9.87;;;;;;;0.53;100.00;98803.03;5029003;28;20601;-61
2024/01/15 10:32:07;;;;;;;17.37;10.20;;;;;;;0.29;100.00;98799.66;5038506;28;20220;-61
2024/01/15 10:34:32;;;;;;;13.90;9.70;;;;;;;0.36;100.00;98797.72;5029474;28;20208;-61
2024/01/15 10:36:58;;;;;;;13.23;8.63;;;;;;;0.50;100.00;98793.03;5030605;28;20550;-61
2024/01/15 10:39:24;;;;;;;11.63;7.77;;;;;;;0.79;100.00;98786.97;5030812;28;20177;-62
2024/01/15 10:41:50;;;;;;;14.03;8.17;;;;;;;0.95;100.00;98779.63;5038632;28;20256;-62
2024/01/15 10:44:16;;;;;;;16.10;9.40;;;;;;;0.93;100.00;98783.09;5030925;28;20187;-63
2024/01/15 10:46:43;;;;;;;16.10;9.00;;;;;;;0.90;100.00;98776.44;5029990;28;20306;-65
2024/01/15 10:49:10;;;;;;;12.57;8.73;;;;;;;0.87;100.00;98768.97;5033942;28;20180;-61
2024/01/15 10:51:36;;;;;;;13.10;8.50;;;;;;;0.94;100.00;98772.94;5043293;28;20353;-62
2024/01/15 10:54:01;;;;;;;15.20;8.73;;;;;;;1.19;100.00;98751.75;5031113;28;20204;-61
2024/01/15 10:56:29;;;;;;;12.23;8.73;;;;;;;1.23;100.00;98753.28;5017511;28;20185;-61
2024/01/15 10:58:56;;;;;;;14.73;9.17;;;;;;;1.72;100.00;98753.06;5029021;28;20212;-61
2024/01/15 11:01:21;;;;;;;13.80;9.30;;;;;;;2.21;100.00;98749.44;5039505;28;20228;-66
2024/01/15 11:03:47;;;;;;;14.27;9.67;;;;;;;2.83;100.00;98744.25;5039847;28;20181;-62
2024/01/15 11:06:19;;;;;;;11.53;7.67;;;;;;;2.88;100.00;98743.16;5030742;28;20602;-62